Time;durP1;ratioP1;P1;durP2;ratioP2;P2;SDS_P1;SDS_P2;PMS_P1;PMS_P2;Temp;Humidity;BMP_temperature;BMP_pressure;BME280_temperature;BME280_humidity;BME280_pressure;Samples;Min_cycle;Max_cycle;Signal;HPM_P1;HPM_P2
2023/08/31 00:00:43;;;;;;;4.03;1.67;;;;;;;17.91;64.25;96952.63;5050610;28;20447;-73
2023/08/31 00:03:12;;;;;;;2.13;1.87;;;;;;;18.00;64.15;96954.06;5080966;28;20263;-73
2023/08/31 00:05:40;;;;;;;1.70;1.40;;;;;;;17.95;64.20;96954.66;5065254;28;20822;-74
2023/08/31 00:08:06;;;;;;;4.80;2.00;;;;;;;17.95;64.28;96949.34;5091471;28;20801;-73
2023/08/31 00:10:31;;;;;;;7.23;1.87;;;;;;;17.97;64.36;96938.56;5083061;28;20526;-74
2023/08/31 00:12:57;;;;;;;3.00;1.77;;;;;;;17.99;64.39;96941.03;5083964;28;20217;-74
2023/08/31 00:15:23;;;;;;;2.07;1.70;;;;;;;17.96;64.84;96942.22;5081950;28;20190;-73
2023/08/31 00:17:49;;;;;;;2.50;1.77;;;;;;;17.92;64.53;96947.09;5086290;28;20190;-75
2023/08/31 00:20:14;;;;;;;4.90;2.03;;;;;;;17.89;64.79;96958.16;5063281;28;20493;-73
2023/08/31 00:22:40;;;;;;;5.07;2.07;;;;;;;17.88;64.40;96956.50;5084709;28;20181;-73
2023/08/31 00:25:08;;;;;;;1.80;1.70;;;;;;;17.87;64.41;96952.22;5082481;28;20553;-74
2023/08/31 00:27:34;;;;;;;2.80;1.80;;;;;;;17.83;64.24;96958.16;5091038;28;20220;-71
2023/08/31 00:29:59;;;;;;;3.30;1.73;;;;;;;17.86;64.17;96963.84;5083655;28;20498;-74
2023/08/31 00:32:25;;;;;;;2.03;1.77;;;;;;;17.86;63.79;96966.50;5073596;28;20555;-73
2023/08/31 00:34:50;;;;;;;3.97;1.90;;;;;;;17.84;63.76;96971.19;5080266;28;20182;-73
2023/08/31 00:37:16;;;;;;;3.23;2.00;;;;;;;17.83;63.60;96969.56;5055782;28;20186;-76
2023/08/31 00:39:41;;;;;;;9.13;2.20;;;;;;;17.79;63.40;96973.63;5077297;28;20174;-74
2023/08/31 00:42:07;;;;;;;7.10;2.37;;;;;;;17.80;63.72;96975.25;5076885;28;20181;-73
2023/08/31 00:44:33;;;;;;;5.00;2.20;;;;;;;17.81;63.55;96974.25;5056849;28;20548;-74
2023/08/31 00:46:58;;;;;;;2.07;1.80;;;;;;;17.79;63.83;96974.44;5082838;28;20178;-74
2023/08/31 00:49:24;;;;;;;4.70;2.27;;;;;;;17.78;63.90;96972.00;5079410;28;20208;-72
2023/08/31 00:51:50;;;;;;;4.77;2.07;;;;;;;17.80;63.85;96977.91;5058867;28;20199;-75
2023/08/31 00:54:17;;;;;;;8.20;2.20;;;;;;;17.78;63.85;96977.28;5081724;28;20245;-74
2023/08/31 00:56:43;;;;;;;4.47;2.07;;;;;;;17.77;63.88;96973.84;5059186;28;21124;-73
2023/08/31 00:59:08;;;;;;;9.30;2.37;;;;;;;17.77;64.07;96967.69;5078968;28;20420;-73
2023/08/31 01:01:53;;;;;;;4.80;2.27;;;;;;;17.76;64.14;96963.44;5078557;28;20198;-73
2023/08/31 01:04:24;;;;;;;2.80;2.30;;;;;;;17.72;64.15;96964.88;5086634;28;20185;-74
2023/08/31 01:07:02;;;;;;;4.70;1.90;;;;;;;17.65;64.45;96965.66;5066765;28;20482;-74
2023/08/31 01:09:44;;;;;;;4.70;2.40;;;;;;;17.64;64.32;96960.59;5087288;28;21015;-74
2023/08/31 01:12:11;;;;;;;2.50;2.30;;;;;;;17.60;64.35;96960.19;5068675;28;20427;-72
2023/08/31 01:14:51;;;;;;;3.17;2.20;;;;;;;17.58;64.37;96967.50;5051996;28;20429;-74
2023/08/31 01:17:17;;;;;;;2.27;2.07;;;;;;;17.58;64.16;96964.84;5070639;28;20514;-73
2023/08/31 01:19:47;;;;;;;3.87;1.80;;;;;;;17.56;64.34;96972.19;5081709;28;20499;-73
2023/08/31 01:22:25;;;;;;;6.83;2.27;;;;;;;17.46;64.23;96975.22;5071648;28;20207;-73
2023/08/31 01:24:51;;;;;;;3.97;2.17;;;;;;;17.37;64.20;96973.78;5057818;28;20447;-73
2023/08/31 01:27:16;;;;;;;2.57;2.37;;;;;;;17.27;64.26;96976.81;5059925;28;20429;-74
2023/08/31 01:29:42;;;;;;;2.33;1.80;;;;;;;17.28;64.39;96983.75;5074304;28;20458;-73
2023/08/31 01:32:07;;;;;;;6.00;2.30;;;;;;;17.27;64.12;96979.47;5073559;28;20666;-75
2023/08/31 01:34:34;;;;;;;2.67;2.10;;;;;;;17.22;64.26;96984.56;5072085;28;20651;-75
2023/08/31 01:37:03;;;;;;;5.13;2.40;;;;;;;17.22;64.08;96984.56;5089904;28;20182;-75
2023/08/31 01:39:31;;;;;;;3.20;2.30;;;;;;;17.18;64.14;96983.31;5087218;28;20517;-76
2023/08/31 01:41:58;;;;;;;3.07;1.80;;;;;;;17.11;64.60;96985.16;5059024;28;20838;-74
2023/08/31 01:44:25;;;;;;;2.67;2.10;;;;;;;17.09;64.31;96992.47;5071122;28;20434;-72
2023/08/31 01:46:57;;;;;;;4.37;2.23;;;;;;;17.09;64.22;96992.47;5072229;28;20495;-73
2023/08/31 01:49:23;;;;;;;4.50;2.80;;;;;;;17.07;64.12;96992.69;5036464;28;20796;-75
2023/08/31 01:51:49;;;;;;;3.20;2.13;;;;;;;17.12;64.17;97000.03;5074570;28;20443;-71
2023/08/31 01:54:14;;;;;;;3.90;1.87;;;;;;;17.17;64.32;97006.34;5089162;28;20514;-74
2023/08/31 01:56:40;;;;;;;2.40;2.13;;;;;;;17.18;64.28;97005.34;5071630;28;20244;-74
2023/08/31 01:59:05;;;;;;;5.40;2.47;;;;;;;17.17;64.43;97010.81;5090040;28;20276;-74
2023/08/31 02:01:32;;;;;;;5.30;2.17;;;;;;;17.15;64.80;97004.91;5072323;28;20254;-71
2023/08/31 02:03:58;;;;;;;4.20;2.47;;;;;;;17.08;65.52;96990.84;5083496;28;20206;-73
2023/08/31 02:06:23;;;;;;;2.67;1.90;;;;;;;17.15;65.05;96994.31;5087202;28;20430;-74
2023/08/31 02:08:48;;;;;;;3.40;1.90;;;;;;;17.17;65.06;96997.59;5084583;28;20643;-74
2023/08/31 02:11:14;;;;;;;6.40;1.83;;;;;;;17.17;65.05;96997.59;5078717;28;20237;-74
2023/08/31 02:13:40;;;;;;;3.40;1.90;;;;;;;17.18;65.28;96991.28;5078582;28;20630;-75
2023/08/31 02:16:06;;;;;;;2.60;1.90;;;;;;;17.12;65.44;97000.03;5077834;28;20186;-75
2023/08/31 02:18:31;;;;;;;5.33;2.40;;;;;;;17.09;65.65;96987.97;5079620;28;20534;-73
2023/08/31 02:20:57;;;;;;;3.37;2.00;;;;;;;17.11;65.58;96995.75;5078845;28;20271;-74
2023/08/31 02:23:23;;;;;;;2.93;2.23;;;;;;;17.08;65.39;96993.50;5081054;28;20182;-73
2023/08/31 02:25:48;;;;;;;2.60;1.90;;;;;;;17.09;65.63;97000.41;5089285;28;20702;-73
2023/08/31 02:28:14;;;;;;;2.43;1.97;;;;;;;17.12;65.40;97002.69;5072649;28;20770;-72
2023/08/31 02:30:39;;;;;;;1.90;1.60;;;;;;;17.13;65.52;96997.16;5080159;28;20614;-73
2023/08/31 02:33:04;;;;;;;5.40;2.37;;;;;;;17.12;65.64;97006.13;5089524;28;20213;-73
2023/08/31 02:35:30;;;;;;;3.93;2.10;;;;;;;17.17;65.39;97000.22;5087930;28;20186;-74
2023/08/31 02:37:55;;;;;;;6.73;2.33;;;;;;;17.15;65.57;97003.09;5051062;28;20198;-72
2023/08/31 02:40:21;;;;;;;2.40;2.20;;;;;;;17.13;65.49;97012.25;5077745;28;20280;-72
2023/08/31 02:42:50;;;;;;;2.20;1.80;;;;;;;17.15;65.82;97016.31;5089151;28;20198;-73
2023/08/31 02:45:17;;;;;;;2.97;2.00;;;;;;;17.10;65.99;97017.94;5088931;28;20186;-74
2023/08/31 02:47:43;;;;;;;3.10;2.30;;;;;;;17.09;65.80;97026.91;5072208;28;20515;-73
2023/08/31 02:50:08;;;;;;;3.80;2.20;;;;;;;17.02;65.88;97027.66;5088210;28;20526;-74
2023/08/31 02:52:34;;;;;;;2.37;2.17;;;;;;;16.93;66.29;97017.44;5070329;28;20233;-74
2023/08/31 02:54:59;;;;;;;4.10;2.13;;;;;;;16.96;66.17;97027.66;5108106;28;20245;-74
2023/08/31 02:57:25;;;;;;;3.57;2.20;;;;;;;16.92;66.04;97027.19;5100067;28;20186;-73
2023/08/31 02:59:50;;;;;;;2.13;1.90;;;;;;;16.97;66.17;97018.69;5099744;28;20177;-73
2023/08/31 03:02:16;;;;;;;2.90;2.17;;;;;;;16.97;66.06;97022.16;5073584;28;20194;-75
2023/08/31 03:04:41;;;;;;;4.47;2.63;;;;;;;17.01;66.03;97018.09;5098450;28;20221;-75
2023/08/31 03:07:07;;;;;;;4.07;2.70;;;;;;;17.00;66.06;97026.25;5092745;28;20179;-75
2023/08/31 03:09:32;;;;;;;3.20;2.60;;;;;;;17.03;65.96;97013.41;5097982;28;20177;-73
2023/08/31 03:11:57;;;;;;;4.40;2.13;;;;;;;17.06;66.02;97019.34;5081473;28;20202;-75
2023/08/31 03:14:23;;;;;;;2.63;2.23;;;;;;;17.05;65.91;97026.47;5078500;28;20372;-73
2023/08/31 03:16:49;;;;;;;2.90;2.10;;;;;;;17.02;65.82;97032.97;5076694;28;20205;-75
2023/08/31 03:19:15;;;;;;;2.93;1.90;;;;;;;17.00;65.92;97036.84;5077284;28;20397;-73
2023/08/31 03:21:40;;;;;;;3.10;2.10;;;;;;;16.87;65.94;97033.09;5063734;28;20989;-76
2023/08/31 03:24:06;;;;;;;5.37;2.13;;;;;;;16.85;66.03;97032.47;5086795;28;20174;-75
2023/08/31 03:26:31;;;;;;;2.67;2.10;;;;;;;16.89;66.07;97039.00;5081799;28;20189;-74
2023/08/31 03:28:56;;;;;;;4.43;2.20;;;;;;;16.91;65.92;97030.84;5080130;28;20183;-74
2023/08/31 03:31:22;;;;;;;6.63;2.30;;;;;;;16.91;65.76;97030.84;5079469;28;20938;-74
2023/08/31 03:33:47;;;;;;;4.20;3.13;;;;;;;16.89;65.73;97028.41;5069127;28;20218;-72
2023/08/31 03:36:13;;;;;;;2.90;2.40;;;;;;;16.89;65.56;97032.88;5087333;28;20211;-73
2023/08/31 03:38:38;;;;;;;2.97;2.60;;;;;;;16.89;65.51;97035.53;5089493;28;20688;-74
2023/08/31 03:41:04;;;;;;;3.60;2.60;;;;;;;16.91;65.37;97030.84;5071732;28;20202;-73
2023/08/31 03:43:30;;;;;;;5.43;2.20;;;;;;;16.89;65.24;97024.94;5073814;28;20685;-75
2023/08/31 03:45:56;;;;;;;3.70;2.33;;;;;;;16.88;65.39;97032.06;5084727;28;20269;-75
2023/08/31 03:48:25;;;;;;;2.60;2.07;;;;;;;16.88;65.52;97039.22;5080762;28;20194;-73
2023/08/31 03:50:53;;;;;;;2.90;2.23;;;;;;;16.82;65.78;97047.91;5074803;28;20483;-73
2023/08/31 03:53:19;;;;;;;2.63;2.37;;;;;;;16.78;65.80;97046.66;5079399;28;20440;-74
2023/08/31 03:55:44;;;;;;;3.60;2.40;;;;;;;16.79;65.52;97043.00;5073580;28;20423;-74
2023/08/31 03:58:10;;;;;;;4.07;2.20;;;;;;;16.78;65.47;97057.25;5076844;28;20207;-74
2023/08/31 04:00:36;;;;;;;3.00;1.97;;;;;;;16.77;65.88;97059.09;5088406;28;20280;-74
2023/08/31 04:03:02;;;;;;;5.50;2.50;;;;;;;16.78;65.71;97054.59;5068927;28;20169;-74
2023/08/31 04:05:28;;;;;;;4.80;2.17;;;;;;;16.77;65.84;97050.31;5087723;28;20430;-74
2023/08/31 04:07:54;;;;;;;4.90;2.47;;;;;;;16.78;65.95;97060.72;5087564;28;20929;-74
2023/08/31 04:10:19;;;;;;;5.00;2.33;;;;;;;16.79;65.73;97054.44;5079519;28;20202;-75
2023/08/31 04:12:44;;;;;;;7.67;3.77;;;;;;;16.74;65.67;97047.06;5060583;28;20725;-75
2023/08/31 04:15:11;;;;;;;4.03;2.20;;;;;;;16.74;66.05;97055.03;5085261;28;20897;-74
2023/08/31 04:17:36;;;;;;;2.90;2.40;;;;;;;16.67;66.23;97062.09;5081999;28;20556;-75
2023/08/31 04:20:03;;;;;;;3.93;2.20;;;;;;;16.62;66.44;97061.88;5090936;28;20447;-73
2023/08/31 04:22:29;;;;;;;3.83;2.30;;;;;;;16.55;66.38;97053.88;5090332;28;20782;-76
2023/08/31 04:24:54;;;;;;;6.80;2.00;;;;;;;16.53;66.57;97058.56;5090576;28;20516;-74
2023/08/31 04:27:20;;;;;;;3.13;2.10;;;;;;;16.49;66.57;97064.44;5082316;28;20185;-75
2023/08/31 04:29:46;;;;;;;3.60;2.47;;;;;;;16.49;66.69;97069.72;5073227;28;20531;-74
2023/08/31 04:32:12;;;;;;;2.70;2.30;;;;;;;16.48;66.89;97068.09;5022652;28;20190;-73
2023/08/31 04:34:37;;;;;;;3.47;2.20;;;;;;;16.50;66.79;97071.34;5043756;28;20428;-74
2023/08/31 04:37:03;;;;;;;6.20;2.30;;;;;;;16.50;66.39;97066.06;5072529;28;20295;-74
2023/08/31 04:39:28;;;;;;;5.77;2.53;;;;;;;16.46;66.45;97073.53;5089001;28;20190;-76
2023/08/31 04:41:54;;;;;;;6.27;3.03;;;;;;;16.46;66.26;97080.69;5082118;28;20197;-76
2023/08/31 04:44:19;;;;;;;3.90;2.40;;;;;;;16.49;66.47;97085.59;5090311;28;20181;-73
2023/08/31 04:46:45;;;;;;;3.93;2.93;;;;;;;16.49;66.41;97082.94;5073049;28;20729;-72
2023/08/31 04:49:11;;;;;;;5.13;2.70;;;;;;;16.45;66.48;97084.31;5090379;28;20545;-74
2023/08/31 04:51:41;;;;;;;4.57;2.90;;;;;;;16.45;66.45;97085.13;5089821;28;20288;-74
2023/08/31 04:54:07;;;;;;;5.70;2.80;;;;;;;16.42;66.57;97091.63;5085050;28;20210;-73
2023/08/31 04:56:33;;;;;;;3.40;2.57;;;;;;;16.40;66.41;97092.84;5086628;28;20419;-75
2023/08/31 04:58:58;;;;;;;2.63;2.43;;;;;;;16.39;66.58;97093.84;5064292;28;20181;-75
2023/08/31 05:01:24;;;;;;;7.70;2.90;;;;;;;16.35;66.58;97088.13;5089869;28;20682;-74
2023/08/31 05:03:49;;;;;;;7.03;2.87;;;;;;;16.31;66.61;97094.00;5089483;28;20170;-74
2023/08/31 05:06:15;;;;;;;4.27;2.90;;;;;;;16.31;66.73;97101.94;5085545;28;20292;-75
2023/08/31 05:08:40;;;;;;;6.03;2.60;;;;;;;16.32;66.73;97099.09;5089397;28;20573;-73
2023/08/31 05:11:06;;;;;;;4.40;3.63;;;;;;;16.27;66.93;97104.13;5078239;28;20580;-75
2023/08/31 05:13:31;;;;;;;3.27;2.67;;;;;;;16.32;67.20;97114.97;5086421;28;20241;-76
2023/08/31 05:15:57;;;;;;;3.47;3.00;;;;;;;16.34;67.61;97107.66;5071886;28;20180;-73
2023/08/31 05:18:22;;;;;;;3.67;2.70;;;;;;;16.34;67.14;97110.28;5089239;28;20580;-73
2023/08/31 05:20:48;;;;;;;3.30;3.00;;;;;;;16.31;67.19;97109.88;5088116;28;20228;-74
2023/08/31 05:23:14;;;;;;;5.60;3.10;;;;;;;16.34;67.15;97115.59;5089733;28;20177;-74
2023/08/31 05:25:43;;;;;;;4.97;3.00;;;;;;;16.34;67.32;97122.69;5062779;28;20780;-74
2023/08/31 05:28:09;;;;;;;3.60;2.80;;;;;;;16.38;67.42;97127.41;5076088;28;20535;-76
2023/08/31 05:30:34;;;;;;;3.37;2.60;;;;;;;16.41;67.01;97124.38;5067772;28;20498;-74
2023/08/31 05:33:00;;;;;;;8.67;3.17;;;;;;;16.42;67.17;97123.38;5081256;28;20709;-74
2023/08/31 05:35:26;;;;;;;3.90;2.90;;;;;;;16.44;67.34;97125.84;5078344;28;20573;-75
2023/08/31 05:37:52;;;;;;;3.50;3.20;;;;;;;16.46;67.51;97126.44;5089817;28;20419;-74
2023/08/31 05:40:18;;;;;;;6.70;2.70;;;;;;;16.48;67.55;97127.06;5090335;28;20201;-75
2023/08/31 05:42:43;;;;;;;3.33;3.03;;;;;;;16.53;67.58;97127.31;5074895;28;20188;-75
2023/08/31 05:45:09;;;;;;;3.30;2.60;;;;;;;16.55;67.29;97135.06;5064008;28;20201;-74
2023/08/31 05:47:34;;;;;;;7.60;3.40;;;;;;;16.54;67.39;97136.06;5082292;28;20601;-73
2023/08/31 05:50:00;;;;;;;4.07;3.10;;;;;;;16.57;67.46;97136.50;5077421;28;20712;-74
2023/08/31 05:52:26;;;;;;;6.80;3.10;;;;;;;16.58;67.47;97138.13;5085651;28;20216;-73
2023/08/31 05:54:51;;;;;;;5.73;3.70;;;;;;;16.59;67.55;97149.56;5088237;28;20424;-76
2023/08/31 05:57:21;;;;;;;6.20;2.73;;;;;;;16.65;67.53;97143.47;5084793;28;20521;-74
2023/08/31 05:59:47;;;;;;;4.50;2.90;;;;;;;16.68;67.27;97148.38;5089896;28;20181;-74
2023/08/31 06:02:12;;;;;;;3.80;2.83;;;;;;;16.73;67.13;97145.16;5070338;28;20440;-74
2023/08/31 06:04:38;;;;;;;6.17;3.13;;;;;;;16.72;67.24;97146.16;5077890;28;20415;-74
2023/08/31 06:07:03;;;;;;;5.57;3.13;;;;;;;16.70;67.50;97149.03;5082077;28;20206;-76
2023/08/31 06:09:29;;;;;;;7.33;3.30;;;;;;;16.82;67.24;97148.47;5083058;28;20175;-75
2023/08/31 06:11:54;;;;;;;4.40;2.90;;;;;;;16.81;66.86;97139.75;5060925;28;20209;-74
2023/08/31 06:14:20;;;;;;;7.17;3.40;;;;;;;16.89;66.71;97149.31;5069799;28;20293;-74
2023/08/31 06:16:45;;;;;;;4.47;2.70;;;;;;;16.99;66.49;97155.16;5085968;28;20177;-75
2023/08/31 06:19:15;;;;;;;6.27;2.90;;;;;;;17.17;66.18;97152.00;5079285;28;20596;-74
2023/08/31 06:21:41;;;;;;;3.40;2.60;;;;;;;17.27;65.58;97154.25;5079870;28;20200;-73
2023/08/31 06:24:09;;;;;;;8.43;2.83;;;;;;;17.29;64.95;97154.88;5093693;28;20908;-73
2023/08/31 06:26:35;;;;;;;5.90;3.50;;;;;;;17.31;65.25;97163.47;5093449;28;20182;-75
2023/08/31 06:29:01;;;;;;;4.33;3.13;;;;;;;17.41;65.06;97156.97;5093575;28;20457;-75
2023/08/31 06:31:26;;;;;;;6.27;3.37;;;;;;;17.66;64.73;97167.88;5093378;28;20718;-72
2023/08/31 06:33:51;;;;;;;3.20;2.90;;;;;;;17.89;64.79;97161.44;5093144;28;20190;-75
2023/08/31 06:36:17;;;;;;;2.60;2.40;;;;;;;18.11;64.49;97156.81;5084693;28;20177;-73
2023/08/31 06:38:42;;;;;;;4.43;2.67;;;;;;;18.30;63.60;97159.69;5092568;28;20192;-74
2023/08/31 06:41:09;;;;;;;6.97;3.17;;;;;;;18.50;63.30;97167.66;5093108;28;20288;-74
2023/08/31 06:43:34;;;;;;;7.90;2.90;;;;;;;18.68;62.69;97173.19;5084070;28;20555;-74
2023/08/31 06:45:59;;;;;;;5.53;2.70;;;;;;;18.84;61.63;97182.56;5057072;28;20411;-74
2023/08/31 06:48:25;;;;;;;4.57;2.27;;;;;;;18.99;61.23;97189.53;5092692;28;20608;-73
2023/08/31 06:50:50;;;;;;;4.90;2.40;;;;;;;19.17;60.65;97176.38;5075477;28;20222;-73
2023/08/31 06:53:16;;;;;;;2.37;2.17;;;;;;;19.35;60.71;97188.22;5074804;28;20288;-74
2023/08/31 06:55:41;;;;;;;3.23;2.50;;;;;;;19.49;59.93;97199.59;5093142;28;20257;-73
2023/08/31 06:58:07;;;;;;;5.20;2.40;;;;;;;19.54;58.36;97191.00;5084754;28;20193;-74
2023/08/31 07:00:32;;;;;;;5.00;2.50;;;;;;;19.51;57.75;97189.59;5092532;28;20307;-74
2023/08/31 07:02:58;;;;;;;6.73;2.73;;;;;;;19.53;58.40;97189.41;5078195;28;20705;-73
2023/08/31 07:05:25;;;;;;;4.30;2.20;;;;;;;19.33;56.97;97190.25;5084446;28;20177;-74
2023/08/31 07:07:54;;;;;;;5.70;2.47;;;;;;;19.40;57.12;97187.56;5083072;28;20181;-74
2023/08/31 07:10:20;;;;;;;6.87;2.70;;;;;;;19.28;57.11;97190.09;5067691;28;20799;-71
2023/08/31 07:12:46;;;;;;;4.20;2.30;;;;;;;19.31;57.43;97190.47;5084099;28;20498;-74
2023/08/31 07:15:11;;;;;;;6.37;2.10;;;;;;;19.15;56.93;97202.34;5088708;28;20448;-74
2023/08/31 07:17:36;;;;;;;2.73;2.00;;;;;;;19.05;56.43;97193.97;5088498;28;20178;-72
2023/08/31 07:20:05;;;;;;;3.03;2.30;;;;;;;18.93;56.15;97203.56;5092183;28;20178;-73
2023/08/31 07:22:32;;;;;;;5.40;2.20;;;;;;;18.94;56.44;97203.41;5092737;28;20181;-75
2023/08/31 07:24:58;;;;;;;6.23;2.57;;;;;;;18.94;56.90;97203.41;5065470;28;20460;-74
2023/08/31 07:27:23;;;;;;;3.23;2.03;;;;;;;18.96;56.78;97201.38;5092124;28;20501;-74
2023/08/31 07:29:49;;;;;;;6.40;2.57;;;;;;;18.93;56.07;97211.53;5091560;28;20269;-75
2023/08/31 07:32:14;;;;;;;5.03;2.43;;;;;;;19.07;55.97;97213.19;5060871;28;20190;-75
2023/08/31 07:34:40;;;;;;;3.90;2.30;;;;;;;19.32;55.48;97216.03;5087533;28;20623;-75
2023/08/31 07:37:06;;;;;;;5.97;2.40;;;;;;;19.62;54.78;97210.19;5091874;28;20197;-74
2023/08/31 07:39:31;;;;;;;5.37;2.60;;;;;;;19.82;54.21;97221.78;5077086;28;20669;-73
2023/08/31 07:41:57;;;;;;;7.67;2.33;;;;;;;20.00;52.07;97213.13;5070135;28;20223;-75
2023/08/31 07:44:23;;;;;;;3.03;2.00;;;;;;;20.13;50.57;97214.91;5085528;28;20649;-74
2023/08/31 07:46:49;;;;;;;4.50;2.20;;;;;;;20.22;50.50;97211.78;5090961;28;20593;-74
2023/08/31 07:49:14;;;;;;;3.83;2.30;;;;;;;20.29;50.35;97219.72;5091931;28;20511;-74
2023/08/31 07:51:39;;;;;;;3.47;2.30;;;;;;;20.52;49.13;97218.34;5083441;28;20292;-74
2023/08/31 07:54:05;;;;;;;5.63;2.47;;;;;;;20.68;49.42;97217.00;5082600;28;20553;-76
2023/08/31 07:56:30;;;;;;;5.90;3.20;;;;;;;21.01;49.25;97222.09;5091657;28;20260;-72
2023/08/31 07:58:56;;;;;;;6.90;2.80;;;;;;;21.29;47.13;97220.78;5084110;28;20729;-73
2023/08/31 08:01:21;;;;;;;7.20;2.00;;;;;;;21.51;45.03;97220.34;5086774;28;20198;-74
2023/08/31 08:03:47;;;;;;;3.23;1.97;;;;;;;21.72;44.06;97218.28;5065335;28;20177;-75
2023/08/31 08:06:12;;;;;;;7.70;1.90;;;;;;;21.85;43.93;97220.78;5090483;28;20178;-74
2023/08/31 08:08:38;;;;;;;3.77;2.10;;;;;;;22.05;44.62;97220.53;5090659;28;20550;-74
2023/08/31 08:11:04;;;;;;;4.77;2.37;;;;;;;21.88;41.39;97220.34;5088488;28;20391;-74
2023/08/31 08:13:30;;;;;;;4.50;2.00;;;;;;;21.83;42.51;97222.88;5077493;28;20359;-73
2023/08/31 08:15:55;;;;;;;4.00;2.30;;;;;;;21.89;42.62;97221.97;5090201;28;21009;-74
2023/08/31 08:18:21;;;;;;;3.53;1.90;;;;;;;22.17;43.39;97233.94;5091145;28;20272;-74
2023/08/31 08:20:53;;;;;;;6.30;2.00;;;;;;;22.37;41.66;97235.50;5091069;28;20289;-74
2023/08/31 08:23:19;;;;;;;5.10;2.53;;;;;;;22.62;41.03;97239.91;5072722;28;20567;-75
2023/08/31 08:25:44;;;;;;;6.83;2.20;;;;;;;22.88;41.62;97232.50;5090242;28;20412;-74
2023/08/31 08:28:10;;;;;;;5.57;2.13;;;;;;;23.21;41.73;97231.13;5090015;28;20434;-73
2023/08/31 08:30:35;;;;;;;5.40;2.40;;;;;;;23.43;40.23;97240.22;5089893;28;20300;-73
2023/08/31 08:33:00;;;;;;;2.90;1.70;;;;;;;23.35;39.05;97243.22;5086377;28;20827;-74
2023/08/31 08:35:26;;;;;;;8.70;2.70;;;;;;;23.19;40.09;97239.38;5078345;28;20202;-73
2023/08/31 08:37:52;;;;;;;3.40;1.90;;;;;;;23.63;39.20;97239.81;5070034;28;20340;-73
2023/08/31 08:40:18;;;;;;;4.57;2.10;;;;;;;23.86;37.76;97240.00;5081879;28;20301;-73
2023/08/31 08:42:46;;;;;;;4.77;2.07;;;;;;;23.46;35.67;97245.06;5051256;28;20470;-73
2023/08/31 08:45:15;;;;;;;2.13;1.67;;;;;;;23.58;36.67;97250.41;5080383;28;20182;-75
2023/08/31 08:47:43;;;;;;;7.30;2.07;;;;;;;23.59;36.20;97246.69;5071717;28;20418;-72
2023/08/31 08:50:10;;;;;;;6.07;2.00;;;;;;;23.77;36.43;97240.38;5087450;28;20841;-74
2023/08/31 08:52:35;;;;;;;5.40;2.10;;;;;;;23.70;36.19;97250.38;5083960;28;20425;-74
2023/08/31 08:55:01;;;;;;;3.07;1.70;;;;;;;23.46;36.27;97254.97;5080231;28;20850;-74
2023/08/31 08:57:26;;;;;;;5.83;2.00;;;;;;;23.40;36.60;97251.38;5056072;28;20181;-74
2023/08/31 08:59:52;;;;;;;4.77;1.80;;;;;;;23.43;37.02;97256.25;5081645;28;20243;-73
2023/08/31 09:02:17;;;;;;;5.00;2.10;;;;;;;23.31;36.83;97253.56;5075786;28;20178;-72
2023/08/31 09:04:43;;;;;;;3.07;2.00;;;;;;;23.03;36.80;97251.56;5072604;28;20181;-74
2023/08/31 09:07:08;;;;;;;5.03;2.10;;;;;;;22.76;37.42;97257.34;5087622;28;20196;-74
2023/08/31 09:09:48;;;;;;;3.47;2.00;;;;;;;22.68;38.00;97265.69;5069329;28;20372;-75
2023/08/31 09:12:14;;;;;;;4.60;2.50;;;;;;;22.94;37.99;97263.63;5087615;28;20204;-74
2023/08/31 09:14:39;;;;;;;5.97;2.37;;;;;;;23.18;37.70;97261.81;5057044;28;20461;-74
2023/08/31 09:17:06;;;;;;;5.57;2.33;;;;;;;23.23;38.16;97263.81;5077164;28;20182;-74
2023/08/31 09:19:31;;;;;;;6.20;1.87;;;;;;;23.49;36.92;97272.41;5082456;28;20178;-73
2023/08/31 09:21:57;;;;;;;3.53;1.80;;;;;;;23.93;36.92;97265.56;5080431;28;20449;-73
2023/08/31 09:24:23;;;;;;;8.13;2.47;;;;;;;24.14;36.03;97266.00;5072771;28;20200;-75
2023/08/31 09:26:53;;;;;;;2.57;1.83;;;;;;;24.07;36.27;97271.47;5088946;28;20597;-73
2023/08/31 09:29:19;;;;;;;7.13;2.10;;;;;;;23.93;36.49;97280.81;5062581;28;20796;-74
2023/08/31 09:31:45;;;;;;;5.40;2.30;;;;;;;23.49;36.32;97269.72;5088906;28;20458;-75
2023/08/31 09:34:11;;;;;;;4.60;2.30;;;;;;;23.66;35.50;97276.00;5080604;28;20708;-75
2023/08/31 09:36:37;;;;;;;8.03;2.57;;;;;;;23.86;35.06;97280.97;5062698;28;20499;-74
2023/08/31 09:39:04;;;;;;;5.77;2.10;;;;;;;24.05;34.10;97276.28;5088604;28;20185;-74
2023/08/31 09:41:30;;;;;;;3.03;1.90;;;;;;;23.91;34.00;97275.69;5073136;28;21100;-71
2023/08/31 09:43:55;;;;;;;7.60;2.40;;;;;;;23.90;33.96;97283.97;5088604;28;20492;-72
2023/08/31 09:46:21;;;;;;;8.20;1.97;;;;;;;23.95;33.27;97284.06;5071498;28;20264;-75
2023/08/31 09:48:47;;;;;;;3.97;1.80;;;;;;;23.91;32.49;97285.59;5075880;28;20174;-74
2023/08/31 09:51:16;;;;;;;5.13;1.80;;;;;;;24.08;32.58;97277.66;5062129;28;20217;-74
2023/08/31 09:53:42;;;;;;;6.03;2.33;;;;;;;24.27;32.49;97280.97;5080517;28;20443;-73
2023/08/31 09:56:13;;;;;;;4.77;1.90;;;;;;;24.38;30.95;97287.34;5053529;28;20472;-74
2023/08/31 09:58:38;;;;;;;4.93;2.67;;;;;;;24.14;30.93;97284.72;5068189;28;20178;-74
2023/08/31 10:01:05;;;;;;;2.90;2.00;;;;;;;23.95;32.28;97288.59;5053621;28;20813;-71
2023/08/31 10:03:31;;;;;;;3.47;2.00;;;;;;;23.72;32.43;97291.09;5087185;28;20174;-72
2023/08/31 10:05:56;;;;;;;5.10;1.90;;;;;;;23.84;32.52;97283.06;5089094;28;20416;-75
2023/08/31 10:08:24;;;;;;;3.47;2.17;;;;;;;23.68;32.00;97289.13;5081890;28;20264;-73
2023/08/31 10:10:49;;;;;;;5.87;2.37;;;;;;;23.65;32.07;97284.22;5077395;28;20198;-72
2023/08/31 10:13:15;;;;;;;6.53;2.33;;;;;;;23.54;32.99;97277.88;5076103;28;20460;-72
2023/08/31 10:15:43;;;;;;;3.80;2.33;;;;;;;23.44;32.52;97284.59;5044474;28;20182;-72
2023/08/31 10:18:08;;;;;;;3.50;2.00;;;;;;;23.60;33.04;97279.59;5077393;28;20424;-73
2023/08/31 10:20:34;;;;;;;4.43;2.07;;;;;;;24.14;33.08;97275.91;5070547;28;20469;-74
2023/08/31 10:23:03;;;;;;;4.60;1.90;;;;;;;24.69;32.51;97279.88;5081105;28;20186;-73
2023/08/31 10:25:54;;;;;;;4.13;2.03;;;;;;;24.87;32.28;97270.78;5072370;28;20182;-75
2023/08/31 10:28:23;;;;;;;5.63;2.10;;;;;;;24.79;31.23;97276.56;5088709;28;20416;-74
2023/08/31 10:31:03;;;;;;;4.53;2.27;;;;;;;24.57;31.67;97284.44;5088545;28;20448;-73
2023/08/31 10:33:31;;;;;;;5.73;2.23;;;;;;;24.36;32.73;97289.44;5076892;28;20448;-73
2023/08/31 10:35:56;;;;;;;2.67;1.97;;;;;;;24.38;33.16;97288.16;5066500;28;20419;-72
2023/08/31 10:38:32;;;;;;;4.20;2.10;;;;;;;24.41;33.22;97291.41;5077691;28;20785;-73
2023/08/31 10:41:03;;;;;;;6.90;2.50;;;;;;;24.30;33.09;97295.75;5068557;28;20213;-74
2023/08/31 10:44:09;;;;;;;5.60;2.20;;;;;;;24.28;33.12;97297.84;5085167;28;20419;-74
2023/08/31 10:46:38;;;;;;;2.83;2.03;;;;;;;24.31;32.02;97292.00;5055880;28;20412;-74
2023/08/31 10:49:09;;;;;;;5.13;2.13;;;;;;;24.41;32.95;97286.84;5080131;28;20508;-74
2023/08/31 10:51:39;;;;;;;9.20;2.40;;;;;;;24.84;31.74;97282.81;5076686;28;20444;-73
2023/08/31 10:54:09;;;;;;;5.57;2.13;;;;;;;24.86;31.05;97287.91;5070274;28;20508;-75
2023/08/31 10:57:08;;;;;;;4.03;2.30;;;;;;;24.68;30.73;97299.66;5072166;28;20416;-73
2023/08/31 10:59:47;;;;;;;6.73;2.50;;;;;;;24.74;31.30;97292.53;5080820;28;20509;-73
2023/08/31 11:02:34;;;;;;;5.90;2.30;;;;;;;24.55;31.06;97290.06;5086948;28;20435;-73
2023/08/31 11:05:09;;;;;;;9.33;2.50;;;;;;;24.54;31.64;97286.53;5084050;28;20789;-73
2023/08/31 11:07:35;;;;;;;4.47;2.40;;;;;;;24.96;31.50;97276.56;5080151;28;20506;-73
2023/08/31 11:10:14;;;;;;;5.40;2.00;;;;;;;25.37;30.76;97281.72;5073540;28;20522;-74
2023/08/31 11:12:40;;;;;;;5.47;2.00;;;;;;;25.96;31.15;97285.78;5083491;28;20174;-74
2023/08/31 11:15:06;;;;;;;4.13;2.07;;;;;;;26.44;31.27;97276.13;5073636;28;20423;-71
2023/08/31 11:17:32;;;;;;;7.10;2.40;;;;;;;26.89;30.48;97279.53;5074324;28;20473;-71
2023/08/31 11:19:58;;;;;;;4.80;2.20;;;;;;;26.86;29.52;97263.06;5065336;28;20451;-73
2023/08/31 11:22:24;;;;;;;3.70;2.20;;;;;;;26.81;29.51;97272.72;5080789;28;20178;-71
2023/08/31 11:24:50;;;;;;;5.33;2.10;;;;;;;26.84;30.47;97271.41;5079659;28;20421;-72
2023/08/31 11:27:20;;;;;;;7.37;2.20;;;;;;;27.03;29.77;97263.75;5061977;28;20223;-72
2023/08/31 11:29:46;;;;;;;4.90;2.47;;;;;;;27.02;29.44;97267.50;5077868;28;20175;-74
2023/08/31 11:32:11;;;;;;;4.87;2.30;;;;;;;26.81;29.72;97255.78;5087386;28;21013;-75